Time;durP1;ratioP1;P1;durP2;ratioP2;P2;SDS_P1;SDS_P2;PMS_P1;PMS_P2;Temp;Humidity;BMP_temperature;BMP_pressure;BME280_temperature;BME280_humidity;BME280_pressure;Samples;Min_cycle;Max_cycle;Signal;HPM_P1;HPM_P2
2021/04/02 00:00:59;;;;;;;2.13;1.37;;;21.50;43.50;;;;;;4935841;29;20229;-83
2021/04/02 00:03:34;;;;;;;2.57;1.10;;;21.50;43.50;;;;;;4947653;29;20214;-84
2021/04/02 00:06:09;;;;;;;1.90;1.17;;;21.50;43.50;;;;;;4948949;29;20754;-84
2021/04/02 00:08:35;;;;;;;2.20;1.00;;;21.50;43.50;;;;;;4948879;29;20220;-84
2021/04/02 00:11:05;;;;;;;3.43;1.33;;;21.50;43.50;;;;;;4942060;29;20257;-85
2021/04/02 00:13:38;;;;;;;1.80;1.00;;;21.50;43.50;;;;;;4940108;29;20270;-85
2021/04/02 00:16:09;;;;;;;5.80;1.37;;;21.40;43.50;;;;;;4934855;29;20201;-85
2021/04/02 00:18:35;;;;;;;3.67;1.00;;;21.40;43.50;;;;;;4941696;29;20201;-85
2021/04/02 00:21:11;;;;;;;2.10;1.10;;;21.40;43.50;;;;;;4940374;29;20190;-85
2021/04/02 00:23:38;;;;;;;2.70;1.20;;;21.40;43.50;;;;;;4940028;29;20220;-84
2021/04/02 00:26:19;;;;;;;2.77;1.33;;;21.40;43.50;;;;;;4937338;29;20199;-85
2021/04/02 00:28:46;;;;;;;2.53;1.30;;;21.40;43.50;;;;;;4941026;29;20197;-84
2021/04/02 00:31:13;;;;;;;2.87;1.10;;;21.40;43.50;;;;;;4945478;29;20208;-84
2021/04/02 00:33:39;;;;;;;1.77;0.90;;;21.40;43.60;;;;;;4935189;29;20275;-84
2021/04/02 00:36:06;;;;;;;2.67;1.10;;;21.40;43.60;;;;;;4940355;29;20198;-84
2021/04/02 00:38:34;;;;;;;2.67;1.10;;;21.40;43.50;;;;;;4931798;29;20210;-84
2021/04/02 00:41:09;;;;;;;3.37;1.10;;;21.40;43.60;;;;;;4936497;29;20198;-83
2021/04/02 00:43:41;;;;;;;1.47;1.07;;;21.40;43.50;;;;;;4943452;29;20213;-84
2021/04/02 00:46:09;;;;;;;2.30;1.43;;;21.30;43.50;;;;;;4933039;29;20198;-84
2021/04/02 00:48:37;;;;;;;2.00;1.10;;;21.30;43.50;;;;;;4940254;29;20205;-83
2021/04/02 00:51:12;;;;;;;2.47;1.20;;;21.30;43.50;;;;;;4937748;29;20202;-83
2021/04/02 00:53:41;;;;;;;3.37;1.20;;;21.30;43.50;;;;;;4929779;29;20236;-83
2021/04/02 00:56:09;;;;;;;2.63;1.10;;;21.30;43.50;;;;;;4937293;29;20190;-83
2021/04/02 00:58:37;;;;;;;2.63;1.37;;;21.30;43.60;;;;;;4940224;29;20201;-83
2021/04/02 01:01:05;;;;;;;3.23;1.30;;;21.30;43.50;;;;;;4945047;29;20202;-83
2021/04/02 01:03:32;;;;;;;2.10;1.17;;;21.30;43.50;;;;;;4935121;29;20230;-83
2021/04/02 01:06:04;;;;;;;3.90;1.27;;;21.30;43.50;;;;;;4925566;29;20202;-83
2021/04/02 01:08:35;;;;;;;3.30;1.03;;;21.30;43.60;;;;;;4940504;29;20208;-84
2021/04/02 01:11:05;;;;;;;3.17;1.10;;;21.30;43.60;;;;;;4944823;28;20238;-83
2021/04/02 01:13:37;;;;;;;2.53;1.03;;;21.20;43.60;;;;;;4939377;29;20198;-83
2021/04/02 01:16:14;;;;;;;2.30;1.10;;;21.20;43.60;;;;;;4940949;29;20220;-83
2021/04/02 01:19:05;;;;;;;3.70;1.03;;;21.20;43.50;;;;;;4937024;29;20210;-83
2021/04/02 01:21:51;;;;;;;2.57;1.10;;;21.20;43.50;;;;;;4939687;29;20229;-84
2021/04/02 01:24:21;;;;;;;3.07;1.23;;;21.20;43.40;;;;;;4939406;29;20232;-83
2021/04/02 01:27:05;;;;;;;2.60;1.30;;;21.20;43.40;;;;;;4947082;29;20225;-83
2021/04/02 01:29:45;;;;;;;1.97;1.10;;;21.20;43.40;;;;;;4942458;28;20260;-83
2021/04/02 01:32:15;;;;;;;4.93;1.20;;;21.20;43.40;;;;;;4933374;29;20678;-83
2021/04/02 01:34:45;;;;;;;1.70;1.10;;;21.20;43.40;;;;;;4936881;28;20205;-83
2021/04/02 01:37:22;;;;;;;3.53;1.10;;;21.10;43.40;;;;;;4940081;29;20220;-83
2021/04/02 01:39:51;;;;;;;2.37;1.27;;;21.10;43.30;;;;;;4940520;29;20201;-83
2021/04/02 01:42:21;;;;;;;5.27;1.50;;;21.20;43.30;;;;;;4944404;29;20212;-83
2021/04/02 01:44:50;;;;;;;3.20;1.40;;;21.10;43.30;;;;;;4922892;29;20272;-84
2021/04/02 01:47:19;;;;;;;2.53;1.20;;;21.10;43.40;;;;;;4946315;29;20202;-83
2021/04/02 01:49:47;;;;;;;3.67;1.33;;;21.10;43.30;;;;;;4936253;29;20198;-83
2021/04/02 01:52:14;;;;;;;3.30;1.20;;;21.10;43.30;;;;;;4921842;29;20190;-83
2021/04/02 01:54:42;;;;;;;4.10;1.30;;;21.10;43.30;;;;;;4944660;29;20198;-82
2021/04/02 01:57:11;;;;;;;3.40;1.37;;;21.10;43.30;;;;;;4938971;29;20199;-83
2021/04/02 01:59:38;;;;;;;2.57;1.43;;;21.10;43.30;;;;;;4938305;29;20236;-83
2021/04/02 02:02:06;;;;;;;2.03;1.40;;;21.10;43.20;;;;;;4947445;29;20306;-83
2021/04/02 02:04:33;;;;;;;2.43;1.23;;;21.10;43.30;;;;;;4939528;29;20229;-84
2021/04/02 02:07:01;;;;;;;2.63;1.00;;;21.00;43.10;;;;;;4944477;29;20191;-84
2021/04/02 02:09:31;;;;;;;3.47;1.43;;;21.00;43.20;;;;;;4934306;29;20241;-84
2021/04/02 02:12:06;;;;;;;1.87;1.10;;;21.00;43.20;;;;;;4928765;29;20209;-83
2021/04/02 02:14:34;;;;;;;3.07;1.40;;;21.00;43.10;;;;;;4939664;28;20205;-84
2021/04/02 02:17:07;;;;;;;2.57;0.93;;;21.00;43.10;;;;;;4938536;29;20940;-84
2021/04/02 02:19:37;;;;;;;2.77;1.33;;;21.00;43.10;;;;;;4943221;29;20206;-84
2021/04/02 02:22:06;;;;;;;4.33;1.30;;;21.00;43.10;;;;;;4947328;29;20233;-84
2021/04/02 02:24:34;;;;;;;4.10;1.30;;;21.00;43.10;;;;;;4938302;29;21012;-84
2021/04/02 02:27:03;;;;;;;2.77;1.20;;;20.90;43.10;;;;;;4950782;29;20293;-84
2021/04/02 02:29:29;;;;;;;3.50;1.50;;;21.00;43.20;;;;;;4932005;29;20190;-84
2021/04/02 02:31:56;;;;;;;3.30;1.40;;;21.00;43.10;;;;;;4945244;29;20202;-84
2021/04/02 02:34:22;;;;;;;3.53;1.17;;;20.90;43.10;;;;;;4945923;29;20199;-84
2021/04/02 02:36:48;;;;;;;3.50;1.17;;;20.90;43.10;;;;;;4943882;29;20205;-84
2021/04/02 02:39:15;;;;;;;2.97;1.20;;;20.90;43.10;;;;;;4945133;29;20201;-84
2021/04/02 02:41:42;;;;;;;4.83;1.37;;;20.90;43.10;;;;;;4942157;29;20662;-84
2021/04/02 02:44:09;;;;;;;2.93;1.10;;;20.90;43.10;;;;;;4941934;29;20265;-84
2021/04/02 02:46:36;;;;;;;3.50;1.60;;;20.90;43.10;;;;;;4950764;29;20210;-83
2021/04/02 02:49:09;;;;;;;2.67;1.10;;;20.90;43.20;;;;;;4944242;29;20205;-83
2021/04/02 02:51:37;;;;;;;3.53;1.27;;;20.90;43.10;;;;;;4944293;29;20198;-84
2021/04/02 02:54:06;;;;;;;3.53;1.40;;;20.90;43.20;;;;;;4949977;29;20209;-83
2021/04/02 02:56:36;;;;;;;2.67;1.30;;;20.80;43.10;;;;;;4943838;29;20205;-83
2021/04/02 02:59:06;;;;;;;4.27;1.43;;;20.80;43.20;;;;;;4943490;29;20198;-83
2021/04/02 03:01:38;;;;;;;3.23;1.13;;;20.80;43.20;;;;;;4945767;28;20221;-83
2021/04/02 03:04:07;;;;;;;3.73;1.20;;;20.80;43.20;;;;;;4942992;29;20580;-84
2021/04/02 03:06:37;;;;;;;3.20;1.20;;;20.80;43.20;;;;;;4943923;29;20232;-84
2021/04/02 03:09:06;;;;;;;2.93;1.40;;;20.80;43.20;;;;;;4945166;29;20204;-83
2021/04/02 03:11:33;;;;;;;3.37;1.33;;;20.80;43.30;;;;;;4941589;29;20198;-84
2021/04/02 03:14:00;;;;;;;2.23;0.90;;;20.80;43.20;;;;;;4945676;29;20198;-83
2021/04/02 03:16:28;;;;;;;4.37;1.40;;;20.80;43.20;;;;;;4936996;29;20225;-83
2021/04/02 03:18:57;;;;;;;2.63;1.30;;;20.80;43.20;;;;;;4948371;29;20729;-83
2021/04/02 03:21:24;;;;;;;3.20;1.13;;;20.80;43.20;;;;;;4941977;29;20209;-83
2021/04/02 03:23:52;;;;;;;3.07;1.17;;;20.80;43.20;;;;;;4943092;29;20217;-84
2021/04/02 03:26:20;;;;;;;1.40;1.10;;;20.70;43.20;;;;;;4940244;28;20202;-84
2021/04/02 03:28:48;;;;;;;2.27;1.10;;;20.70;43.20;;;;;;4934123;29;21102;-84
2021/04/02 03:31:15;;;;;;;3.90;1.23;;;20.70;43.20;;;;;;4942089;29;20198;-83
2021/04/02 03:33:49;;;;;;;3.03;1.07;;;20.70;43.20;;;;;;4944120;29;20233;-84
2021/04/02 03:36:19;;;;;;;4.33;1.50;;;20.70;43.80;;;;;;4941212;29;20621;-84
2021/04/02 03:38:47;;;;;;;3.13;1.33;;;20.70;43.20;;;;;;4944806;29;20253;-84
2021/04/02 03:41:27;;;;;;;2.73;1.13;;;20.70;43.20;;;;;;4935593;29;20233;-84
2021/04/02 03:43:54;;;;;;;3.13;1.23;;;20.70;43.20;;;;;;4941516;29;20604;-85
2021/04/02 03:46:21;;;;;;;2.97;1.20;;;20.70;43.10;;;;;;4944438;28;20269;-84
2021/04/02 03:48:50;;;;;;;5.07;1.63;;;20.70;43.20;;;;;;4949911;29;20239;-84
2021/04/02 03:51:21;;;;;;;3.10;1.20;;;20.70;43.10;;;;;;4941791;29;20262;-84
2021/04/02 03:53:56;;;;;;;4.27;1.53;;;20.60;43.10;;;;;;4936972;29;20206;-84
2021/04/02 03:56:27;;;;;;;2.87;1.43;;;20.70;43.20;;;;;;4947793;29;20760;-84
2021/04/02 03:58:56;;;;;;;4.67;1.40;;;20.70;43.10;;;;;;4945072;29;20229;-84
2021/04/02 04:01:31;;;;;;;2.97;1.13;;;20.60;43.10;;;;;;4939961;29;20201;-84
2021/04/02 04:04:00;;;;;;;2.17;0.90;;;20.60;43.20;;;;;;4947516;29;20213;-84
2021/04/02 04:06:28;;;;;;;1.97;1.00;;;20.60;43.20;;;;;;4942531;29;20194;-84
2021/04/02 04:08:57;;;;;;;2.70;0.90;;;20.60;43.20;;;;;;4939276;29;20666;-84
2021/04/02 04:11:25;;;;;;;2.47;1.17;;;20.60;43.20;;;;;;4939760;29;20229;-84
2021/04/02 04:13:54;;;;;;;3.77;1.10;;;20.60;43.20;;;;;;4940102;29;20230;-83
2021/04/02 04:16:22;;;;;;;3.77;1.40;;;20.60;43.20;;;;;;4948747;29;20190;-84
2021/04/02 04:18:54;;;;;;;2.73;1.30;;;20.60;43.20;;;;;;4944708;29;20193;-83
2021/04/02 04:21:23;;;;;;;3.83;1.10;;;20.60;43.20;;;;;;4942504;29;20194;-84
2021/04/02 04:23:49;;;;;;;2.87;1.10;;;20.60;43.10;;;;;;4941578;29;20221;-84
2021/04/02 04:26:16;;;;;;;4.40;1.40;;;20.60;43.10;;;;;;4940381;29;20214;-83
2021/04/02 04:28:47;;;;;;;3.03;1.07;;;20.60;43.20;;;;;;4939187;29;21045;-84
2021/04/02 04:31:16;;;;;;;3.00;1.07;;;20.60;43.20;;;;;;4946137;29;20213;-83
2021/04/02 04:33:46;;;;;;;3.00;1.20;;;20.50;43.10;;;;;;4948206;28;20591;-84
2021/04/02 04:36:14;;;;;;;3.77;1.10;;;20.50;43.10;;;;;;4942010;29;20193;-85
2021/04/02 04:38:41;;;;;;;2.50;1.00;;;20.50;43.20;;;;;;4946976;28;20208;-85
2021/04/02 04:41:09;;;;;;;3.73;1.43;;;20.60;43.20;;;;;;4948582;29;20209;-85
2021/04/02 04:43:37;;;;;;;2.53;1.20;;;20.60;43.20;;;;;;4942179;29;20213;-85
2021/04/02 04:46:03;;;;;;;4.33;1.40;;;20.50;43.20;;;;;;4943879;28;20190;-84
2021/04/02 04:48:30;;;;;;;2.50;1.20;;;20.50;43.20;;;;;;4940432;29;20209;-85
2021/04/02 04:50:58;;;;;;;1.17;0.80;;;20.50;43.20;;;;;;4947396;29;20202;-84
2021/04/02 04:53:27;;;;;;;2.93;1.03;;;20.50;43.20;;;;;;4935836;29;20206;-84
2021/04/02 04:55:57;;;;;;;4.00;1.47;;;20.50;43.10;;;;;;4941568;28;20265;-84
2021/04/02 04:58:27;;;;;;;3.97;1.30;;;20.50;43.10;;;;;;4947306;29;20206;-85
2021/04/02 05:00:56;;;;;;;2.67;1.20;;;20.50;43.10;;;;;;4948532;29;20202;-84
2021/04/02 05:03:24;;;;;;;3.70;1.13;;;20.50;43.20;;;;;;4937695;29;20214;-84
2021/04/02 05:05:55;;;;;;;2.90;1.47;;;20.50;43.10;;;;;;4945854;29;20657;-83
2021/04/02 05:08:27;;;;;;;5.10;0.97;;;20.50;43.10;;;;;;4948544;29;20221;-84
2021/04/02 05:10:55;;;;;;;3.10;0.97;;;20.40;43.00;;;;;;4945237;29;20269;-84
2021/04/02 05:13:24;;;;;;;2.83;1.13;;;20.40;43.00;;;;;;4941880;29;20206;-85
2021/04/02 05:15:52;;;;;;;1.67;0.90;;;20.40;43.00;;;;;;4943059;29;20202;-84
2021/04/02 05:18:19;;;;;;;4.03;1.40;;;20.40;43.00;;;;;;4941782;29;20198;-84
2021/04/02 05:20:46;;;;;;;1.97;1.00;;;20.40;43.00;;;;;;4938356;28;20205;-84
2021/04/02 05:23:14;;;;;;;3.60;0.90;;;20.40;43.00;;;;;;4937615;29;20986;-83
2021/04/02 05:25:41;;;;;;;1.57;0.90;;;20.40;43.00;;;;;;4944366;29;20201;-84
2021/04/02 05:28:08;;;;;;;2.93;1.03;;;20.40;43.00;;;;;;4940643;29;20205;-84
2021/04/02 05:30:35;;;;;;;2.40;0.97;;;20.40;43.00;;;;;;4931468;29;20580;-85
2021/04/02 05:33:03;;;;;;;2.87;1.33;;;20.40;42.90;;;;;;4942061;29;20213;-84
2021/04/02 05:35:29;;;;;;;3.87;1.30;;;20.40;42.90;;;;;;4942108;29;20190;-84
2021/04/02 05:37:56;;;;;;;2.63;1.00;;;20.40;43.20;;;;;;4937017;29;20206;-83
2021/04/02 05:40:23;;;;;;;2.70;1.03;;;20.40;42.80;;;;;;4943471;29;20236;-83
2021/04/02 05:43:06;;;;;;;4.30;1.43;;;20.40;42.80;;;;;;4942669;29;20193;-84
2021/04/02 05:45:37;;;;;;;3.03;1.20;;;20.30;42.80;;;;;;4938002;28;20689;-83
2021/04/02 05:48:06;;;;;;;2.43;1.20;;;20.30;42.70;;;;;;4939961;29;20233;-84
2021/04/02 05:50:34;;;;;;;3.27;1.30;;;20.40;42.80;;;;;;4934937;28;20702;-84
2021/04/02 05:53:10;;;;;;;1.87;0.90;;;20.30;42.90;;;;;;4939106;29;20237;-84
2021/04/02 05:55:42;;;;;;;2.27;1.20;;;20.40;42.80;;;;;;4936320;29;20207;-83
2021/04/02 05:58:10;;;;;;;3.07;1.20;;;20.40;42.80;;;;;;4943153;29;20201;-81
2021/04/02 06:00:43;;;;;;;3.20;1.30;;;20.30;42.90;;;;;;4951361;29;20532;-84
2021/04/02 06:03:10;;;;;;;2.30;1.00;;;20.30;43.00;;;;;;4947219;29;20206;-81
2021/04/02 06:05:36;;;;;;;2.33;1.20;;;20.30;43.20;;;;;;4942109;29;20596;-82
2021/04/02 06:08:10;;;;;;;4.73;1.60;;;20.30;43.10;;;;;;4943815;28;20736;-81
2021/04/02 06:10:37;;;;;;;3.83;1.07;;;20.30;43.00;;;;;;4949439;29;20245;-81
2021/04/02 06:13:03;;;;;;;3.27;1.20;;;20.30;43.00;;;;;;4950421;28;20202;-80
2021/04/02 06:15:38;;;;;;;2.87;1.20;;;20.30;42.90;;;;;;4948453;29;20568;-81
2021/04/02 06:18:12;;;;;;;2.80;1.27;;;20.30;42.90;;;;;;4938191;29;20198;-83
2021/04/02 06:20:48;;;;;;;4.70;1.43;;;20.30;42.80;;;;;;4949980;29;20252;-84
2021/04/02 06:23:19;;;;;;;1.87;1.10;;;20.30;42.80;;;;;;4949192;29;20576;-82
2021/04/02 06:25:52;;;;;;;4.00;1.20;;;20.30;42.90;;;;;;4949200;29;20229;-80
2021/04/02 06:28:28;;;;;;;2.97;1.30;;;20.30;43.00;;;;;;4948143;29;20225;-80
2021/04/02 06:31:06;;;;;;;3.43;1.53;;;20.30;43.10;;;;;;4948284;29;20677;-81
2021/04/02 06:33:44;;;;;;;3.13;0.87;;;20.30;43.00;;;;;;4941934;29;20208;-82
2021/04/02 06:36:19;;;;;;;2.57;1.10;;;20.20;42.90;;;;;;4934331;29;20202;-82
2021/04/02 06:39:03;;;;;;;2.20;0.97;;;20.30;42.90;;;;;;4946696;28;20216;-88
2021/04/02 06:41:41;;;;;;;3.53;1.20;;;20.30;42.90;;;;;;4941863;29;20201;-81
2021/04/02 06:44:09;;;;;;;3.83;1.30;;;20.30;42.90;;;;;;4941313;29;20217;-82
2021/04/02 06:46:40;;;;;;;7.13;1.67;;;20.20;43.00;;;;;;4948557;29;20202;-83
2021/04/02 06:49:18;;;;;;;3.43;1.30;;;20.30;43.30;;;;;;4939601;29;20190;-81
2021/04/02 06:51:47;;;;;;;3.60;1.50;;;20.20;43.40;;;;;;4949385;29;20229;-81
2021/04/02 06:54:22;;;;;;;4.23;1.40;;;20.20;43.40;;;;;;4942218;29;20253;-83
2021/04/02 06:57:07;;;;;;;6.27;1.43;;;20.20;43.50;;;;;;4949949;29;20194;-80
2021/04/02 06:59:35;;;;;;;5.07;1.67;;;20.30;43.60;;;;;;4942160;28;20220;-81
2021/04/02 07:02:03;;;;;;;3.23;1.17;;;20.30;43.70;;;;;;4939231;28;20253;-80
2021/04/02 07:04:32;;;;;;;3.47;1.07;;;20.30;43.70;;;;;;4940212;29;20308;-81
2021/04/02 07:07:02;;;;;;;3.47;1.43;;;20.20;43.60;;;;;;4941257;29;20190;-81
2021/04/02 07:09:34;;;;;;;3.60;1.10;;;20.30;43.70;;;;;;4940169;29;20234;-82
2021/04/02 07:12:02;;;;;;;4.03;0.90;;;20.30;44.20;;;;;;4948824;29;20641;-83
2021/04/02 07:14:31;;;;;;;2.40;1.10;;;20.30;43.60;;;;;;4946147;29;20198;-82
2021/04/02 07:16:58;;;;;;;2.40;1.10;;;20.30;43.50;;;;;;4958212;28;20194;-81
2021/04/02 07:19:25;;;;;;;5.27;1.40;;;20.30;43.60;;;;;;4945520;28;20347;-81
2021/04/02 07:21:52;;;;;;;5.27;1.50;;;20.30;43.50;;;;;;4944919;29;20221;-81
2021/04/02 07:24:19;;;;;;;2.37;1.33;;;20.20;43.50;;;;;;4948810;29;20224;-82
2021/04/02 07:26:50;;;;;;;3.67;1.43;;;20.20;43.50;;;;;;4941810;28;20201;-85
2021/04/02 07:29:21;;;;;;;4.03;1.07;;;20.20;43.50;;;;;;4946271;29;20198;-82
2021/04/02 07:31:48;;;;;;;2.57;1.23;;;20.30;43.60;;;;;;4948235;29;20673;-81
2021/04/02 07:34:15;;;;;;;97.60;16.23;;;20.20;43.60;;;;;;4928952;29;20637;-78
2021/04/02 07:36:45;;;;;;;54.83;8.37;;;20.20;45.00;;;;;;4947687;29;20225;-80
2021/04/02 07:39:11;;;;;;;43.60;8.10;;;20.30;45.60;;;;;;4946851;29;20193;-85
2021/04/02 07:41:48;;;;;;;41.93;8.10;;;20.30;45.50;;;;;;4950824;28;20209;-85
2021/04/02 07:44:17;;;;;;;37.47;6.43;;;20.30;45.00;;;;;;4947725;29;20229;-87
2021/04/02 07:47:02;;;;;;;20.63;6.00;;;20.30;44.90;;;;;;4949618;29;20221;-85
2021/04/02 07:49:30;;;;;;;26.20;6.10;;;20.30;44.60;;;;;;4945662;28;20202;-81
2021/04/02 07:51:56;;;;;;;31.30;6.60;;;20.30;44.40;;;;;;4947398;28;20194;-82
2021/04/02 07:54:34;;;;;;;20.20;5.33;;;20.30;44.40;;;;;;4948282;29;20217;-84
2021/04/02 07:57:11;;;;;;;26.00;7.10;;;20.30;44.60;;;;;;4947423;29;20193;-88
2021/04/02 07:59:45;;;;;;;21.70;6.97;;;20.30;44.70;;;;;;4941658;29;20201;-87
2021/04/02 08:02:28;;;;;;;25.27;7.03;;;20.30;44.60;;;;;;4953857;28;20202;-84
2021/04/02 08:04:57;;;;;;;26.47;7.67;;;20.30;44.50;;;;;;4948908;29;20232;-86
2021/04/02 08:07:32;;;;;;;21.17;5.90;;;20.30;44.50;;;;;;4945027;28;20424;-84
2021/04/02 08:10:00;;;;;;;19.20;5.47;;;20.30;44.40;;;;;;4942117;28;20234;-85
2021/04/02 08:12:34;;;;;;;23.17;5.30;;;20.30;44.00;;;;;;4937665;28;20211;-86
2021/04/02 08:15:06;;;;;;;11.97;4.20;;;20.30;43.70;;;;;;4948867;29;20609;-86
2021/04/02 08:17:33;;;;;;;15.37;4.37;;;20.30;43.60;;;;;;4941661;29;20201;-84
2021/04/02 08:20:04;;;;;;;12.10;4.23;;;20.30;43.40;;;;;;4947922;28;20205;-88
2021/04/02 08:22:33;;;;;;;11.50;3.83;;;20.30;43.20;;;;;;4941958;28;20606;-87
2021/04/02 08:25:01;;;;;;;11.67;3.60;;;20.30;43.10;;;;;;4952600;29;20221;-93
2021/04/02 08:27:31;;;;;;;7.40;2.90;;;20.30;43.10;;;;;;4951577;29;20665;-93
2021/04/02 08:30:05;;;;;;;8.70;3.10;;;20.30;43.10;;;;;;4954784;29;20198;-93
2021/04/02 08:32:36;;;;;;;6.77;2.57;;;20.30;43.10;;;;;;4953207;29;20297;-93
2021/04/02 08:35:05;;;;;;;8.30;2.73;;;20.30;43.10;;;;;;4937159;29;20202;-93
2021/04/02 08:37:32;;;;;;;7.37;2.33;;;20.30;43.10;;;;;;4935893;28;20204;-93
2021/04/02 08:40:01;;;;;;;6.43;2.70;;;20.30;43.20;;;;;;4953999;28;20547;-93
2021/04/02 08:42:29;;;;;;;5.73;2.20;;;20.30;43.10;;;;;;4954298;29;20209;-90
2021/04/02 08:44:56;;;;;;;5.47;2.13;;;20.30;43.30;;;;;;4938831;29;20285;-92
2021/04/02 08:47:25;;;;;;;8.17;2.23;;;20.30;43.40;;;;;;4953641;29;20285;-92
2021/04/02 08:49:57;;;;;;;7.50;2.50;;;20.30;43.40;;;;;;4950885;28;20236;-93
2021/04/02 08:52:29;;;;;;;6.43;1.80;;;20.30;43.30;;;;;;4946023;29;20240;-85
2021/04/02 08:55:15;;;;;;;5.17;2.20;;;20.30;43.40;;;;;;4946219;29;20197;-90
2021/04/02 08:57:48;;;;;;;7.60;1.83;;;20.30;43.30;;;;;;4933222;29;20321;-90
2021/04/02 09:00:15;;;;;;;4.50;1.70;;;20.30;43.30;;;;;;4944261;29;20213;-89
2021/04/02 09:02:41;;;;;;;7.00;1.77;;;20.30;43.30;;;;;;4931693;29;20287;-89
2021/04/02 09:05:10;;;;;;;5.00;1.60;;;20.30;43.30;;;;;;4931388;29;20631;-91
2021/04/02 09:07:41;;;;;;;5.37;1.50;;;20.30;43.20;;;;;;4950358;29;20206;-89
2021/04/02 09:10:18;;;;;;;5.53;1.53;;;20.30;43.10;;;;;;4933193;29;20280;-91
2021/04/02 09:12:49;;;;;;;3.33;1.50;;;20.30;42.90;;;;;;4933844;29;20186;-91
2021/04/02 09:15:36;;;;;;;5.50;1.73;;;20.40;42.80;;;;;;4925611;29;20198;-89
2021/04/02 09:18:28;;;;;;;4.87;1.87;;;20.30;42.90;;;;;;4927403;29;20297;-90
2021/04/02 09:20:57;;;;;;;3.77;1.47;;;20.30;42.90;;;;;;4911424;29;20281;-89
2021/04/02 09:23:24;;;;;;;4.03;1.50;;;20.30;43.00;;;;;;4928316;29;20214;-88
2021/04/02 09:25:52;;;;;;;4.33;1.37;;;20.30;42.90;;;;;;4926486;29;20227;-89
2021/04/02 09:28:24;;;;;;;2.90;1.27;;;20.30;43.00;;;;;;4927304;29;20246;-88
2021/04/02 09:31:19;;;;;;;4.37;1.50;;;20.40;42.90;;;;;;4926297;29;20209;-88
2021/04/02 09:33:50;;;;;;;4.73;1.30;;;20.40;43.00;;;;;;4928532;29;20242;-89
2021/04/02 09:36:16;;;;;;;3.17;1.30;;;20.40;43.10;;;;;;4929083;29;20210;-89
2021/04/02 09:42:07;;;;;;;5.57;1.60;;;20.40;42.80;;;;;;4993388;23;20268;-88
2021/04/02 09:45:07;;;;;;;3.83;1.40;;;20.40;43.50;;;;;;4974052;28;20288;-86
2021/04/02 09:47:48;;;;;;;2.97;1.30;;;20.40;43.00;;;;;;4983073;28;20839;-88
2021/04/02 09:50:17;;;;;;;4.43;1.20;;;20.40;43.00;;;;;;4967600;28;20299;-88
2021/04/02 09:52:44;;;;;;;4.03;1.63;;;20.40;42.80;;;;;;4983788;28;20204;-88
2021/04/02 09:55:14;;;;;;;2.97;1.20;;;20.40;42.80;;;;;;4981760;28;20271;-85
2021/04/02 09:57:41;;;;;;;3.50;1.27;;;20.40;42.80;;;;;;4987958;28;20291;-87
2021/04/02 10:00:18;;;;;;;2.77;1.10;;;20.40;42.90;;;;;;4975271;28;20269;-87
2021/04/02 10:02:44;;;;;;;3.80;1.27;;;20.40;42.80;;;;;;4963774;28;20288;-87
2021/04/02 10:05:11;;;;;;;5.00;1.30;;;20.50;43.50;;;;;;4980800;28;20228;-91
2021/04/02 10:07:38;;;;;;;3.07;1.20;;;20.40;42.90;;;;;;4984616;28;20202;-91
2021/04/02 10:10:06;;;;;;;2.13;1.30;;;20.50;42.90;;;;;;4971932;28;20214;-88
2021/04/02 10:12:32;;;;;;;3.10;1.17;;;20.40;42.80;;;;;;4984460;28;20248;-88
2021/04/02 10:15:02;;;;;;;2.60;1.20;;;20.50;42.80;;;;;;4986839;28;20210;-86
2021/04/02 10:17:28;;;;;;;3.07;1.30;;;20.50;42.80;;;;;;4982851;28;20208;-89
2021/04/02 10:19:55;;;;;;;3.30;1.20;;;20.50;42.60;;;;;;4985127;28;20196;-86
2021/04/02 10:22:24;;;;;;;4.87;1.30;;;20.40;42.50;;;;;;4983538;28;20783;-86
2021/04/02 10:24:50;;;;;;;3.37;1.23;;;20.50;42.70;;;;;;4985225;28;20227;-86
2021/04/02 10:27:18;;;;;;;4.53;1.40;;;20.50;42.60;;;;;;4985932;28;20231;-85
2021/04/02 10:29:44;;;;;;;4.23;1.50;;;20.50;42.70;;;;;;4983783;28;20211;-84
2021/04/02 10:32:11;;;;;;;3.63;1.33;;;20.50;42.70;;;;;;4983389;28;20263;-85
2021/04/02 10:34:37;;;;;;;2.57;1.27;;;20.50;42.60;;;;;;4984490;28;20215;-85
2021/04/02 10:37:04;;;;;;;4.97;1.60;;;20.50;42.40;;;;;;4987961;28;20205;-87
2021/04/02 10:39:30;;;;;;;3.40;1.33;;;20.50;42.30;;;;;;4968441;28;20212;-86
2021/04/02 10:41:57;;;;;;;3.10;1.10;;;20.50;42.20;;;;;;4985346;28;20201;-86
2021/04/02 10:44:23;;;;;;;5.90;1.40;;;20.50;42.20;;;;;;4983812;28;20314;-90
2021/04/02 10:46:49;;;;;;;3.50;1.20;;;20.60;42.30;;;;;;4987324;28;20220;-85
2021/04/02 10:49:16;;;;;;;3.53;1.43;;;20.50;42.20;;;;;;4985794;28;20200;-86
2021/04/02 10:51:43;;;;;;;3.40;1.30;;;20.50;42.20;;;;;;4986022;28;20201;-85
2021/04/02 10:54:09;;;;;;;3.87;1.53;;;20.50;42.20;;;;;;4982949;28;20193;-83
2021/04/02 10:56:35;;;;;;;5.00;1.67;;;20.50;42.00;;;;;;4982561;28;20203;-86
2021/04/02 10:59:04;;;;;;;4.87;1.47;;;20.50;42.20;;;;;;4972575;28;20205;-91
2021/04/02 11:01:30;;;;;;;4.03;1.70;;;20.60;42.80;;;;;;4969152;28;20287;-92
2021/04/02 11:03:57;;;;;;;3.87;1.30;;;20.70;43.40;;;;;;4974585;28;20291;-91
2021/04/02 11:06:23;;;;;;;5.40;1.50;;;20.80;43.50;;;;;;4963140;28;20209;-88
2021/04/02 11:08:49;;;;;;;4.57;1.40;;;20.90;43.50;;;;;;4983541;28;20216;-88
2021/04/02 11:11:16;;;;;;;4.23;1.33;;;21.00;44.40;;;;;;4991234;28;20211;-95
2021/04/02 11:13:42;;;;;;;5.10;1.37;;;21.10;43.60;;;;;;4989183;28;20281;-88
2021/04/02 11:16:09;;;;;;;2.87;1.27;;;21.10;44.20;;;;;;4972748;28;20287;-86
2021/04/02 11:18:35;;;;;;;4.83;1.20;;;21.20;44.00;;;;;;4985419;28;20873;-87
2021/04/02 11:21:11;;;;;;;2.67;1.30;;;21.30;43.80;;;;;;4987247;28;20246;-94
2021/04/02 11:23:38;;;;;;;3.17;1.00;;;21.30;43.20;;;;;;4981008;28;20208;-92
2021/04/02 11:26:06;;;;;;;4.83;1.63;;;21.40;43.30;;;;;;4987613;28;20232;-92
2021/04/02 11:29:05;;;;;;;4.70;1.50;;;21.40;43.30;;;;;;4973159;28;20230;-94
2021/04/02 11:31:31;;;;;;;2.77;1.17;;;21.50;43.00;;;;;;4966989;28;20744;-90
2021/04/02 11:34:02;;;;;;;3.37;1.50;;;21.50;42.90;;;;;;4978489;28;20252;-95
2021/04/02 11:36:34;;;;;;;5.17;1.40;;;21.60;43.00;;;;;;4983233;28;20217;-96
2021/04/02 11:42:02;;;;;;;2.73;1.20;;;21.70;42.50;;;;;;4923454;29;20694;-87
2021/04/02 11:44:33;;;;;;;3.00;1.30;;;21.70;42.40;;;;;;4907393;29;20241;-86
2021/04/02 11:47:03;;;;;;;3.57;1.30;;;21.80;42.20;;;;;;4890994;29;20712;-83
2021/04/02 11:49:29;;;;;;;2.17;1.00;;;21.80;42.00;;;;;;4909220;29;20286;-88
2021/04/02 11:51:56;;;;;;;2.33;0.90;;;21.90;42.30;;;;;;4908752;29;20206;-89
2021/04/02 11:54:25;;;;;;;4.33;1.30;;;21.90;42.20;;;;;;4915733;29;20203;-93
2021/04/02 11:56:54;;;;;;;2.97;1.00;;;22.00;42.30;;;;;;4907095;29;20209;-85
2021/04/02 11:59:21;;;;;;;4.37;1.10;;;22.00;42.20;;;;;;4907613;29;20515;-89
2021/04/02 12:01:48;;;;;;;5.97;1.27;;;22.10;42.20;;;;;;4895924;29;20947;-93
2021/04/02 12:04:24;;;;;;;;;;;;;;;;;;;;;
2021/04/02 12:06:52;;;;;;;4.37;1.37;;;22.20;42.40;;;;;;4911134;29;20199;-90
2021/04/02 12:09:19;;;;;;;4.50;1.50;;;22.20;41.30;;;;;;4911704;29;20211;-90
2021/04/02 12:11:46;;;;;;;4.73;1.20;;;22.20;42.00;;;;;;4910948;29;20294;-91
2021/04/02 12:14:14;;;;;;;5.23;1.47;;;22.20;42.00;;;;;;4917144;29;20218;-90
2021/04/02 12:16:44;;;;;;;3.97;1.20;;;22.20;41.80;;;;;;4927488;29;20411;-89
2021/04/02 12:19:16;;;;;;;2.57;1.10;;;22.30;41.60;;;;;;4907997;29;20230;-88
2021/04/02 12:21:43;;;;;;;2.80;1.30;;;22.30;41.50;;;;;;4893885;29;20349;-86
2021/04/02 12:24:09;;;;;;;4.23;1.40;;;22.30;41.50;;;;;;4914594;29;20242;-80
2021/04/02 12:26:36;;;;;;;4.97;1.40;;;22.20;39.20;;;;;;4910139;29;20203;-81
2021/04/02 12:29:02;;;;;;;4.17;1.00;;;22.10;38.70;;;;;;4905505;29;20536;-81
2021/04/02 12:31:33;;;;;;;4.43;1.40;;;22.00;38.60;;;;;;4954813;23;20252;-89
2021/04/02 12:33:59;;;;;;;4.40;1.20;;;22.10;39.90;;;;;;4949954;28;20212;-89
2021/04/02 12:36:26;;;;;;;3.17;1.37;;;22.10;40.10;;;;;;4970554;28;20201;-90
2021/04/02 12:38:52;;;;;;;2.50;1.10;;;22.20;40.30;;;;;;4966292;28;20201;-87
2021/04/02 12:41:19;;;;;;;2.90;1.47;;;22.30;40.20;;;;;;4952197;28;20201;-90
2021/04/02 12:43:47;;;;;;;2.27;0.93;;;22.30;40.30;;;;;;4966742;28;20229;-91
2021/04/02 13:01:23;;;;;;;4.37;1.50;;;22.60;41.10;;;;;;4957361;23;20257;-91
2021/04/02 13:04:11;;;;;;;2.57;1.30;;;22.60;40.80;;;;;;4950352;28;20196;-93
2021/04/02 13:06:39;;;;;;;3.10;1.20;;;22.60;41.00;;;;;;4954570;28;20255;-83
2021/04/02 13:09:06;;;;;;;4.43;1.40;;;22.70;40.90;;;;;;4963489;28;20189;-86
2021/04/02 13:11:35;;;;;;;3.80;1.30;;;22.40;38.10;;;;;;4948045;28;20202;-86
2021/04/02 13:14:02;;;;;;;4.37;1.40;;;22.40;38.30;;;;;;4944571;28;20189;-86
2021/04/02 13:16:40;;;;;;;4.67;1.70;;;22.30;38.30;;;;;;4958828;28;20296;-95
2021/04/02 13:19:07;;;;;;;4.63;1.50;;;22.30;38.40;;;;;;4956268;29;20205;-89
2021/04/02 13:21:34;;;;;;;2.77;1.60;;;22.30;39.30;;;;;;4973025;28;20220;-91
2021/04/02 13:24:02;;;;;;;3.27;1.57;;;22.30;39.20;;;;;;4947270;29;20404;-88